createdAt,value
2023-05-25T00:00:19.182Z,5.03
2023-05-25T00:02:49.510Z,5.03
2023-05-25T00:05:18.344Z,4.80
2023-05-25T00:07:45.370Z,4.93
2023-05-25T00:10:12.369Z,4.73
2023-05-25T00:12:39.418Z,5.37
2023-05-25T00:15:07.096Z,5.53
2023-05-25T00:17:37.117Z,5.33
2023-05-25T00:20:07.919Z,4.90
2023-05-25T00:22:36.519Z,5.00
2023-05-25T00:25:06.988Z,4.77
2023-05-25T00:27:33.805Z,4.90
2023-05-25T00:30:00.805Z,5.83
2023-05-25T00:32:27.880Z,5.17
2023-05-25T00:34:55.443Z,4.40
2023-05-25T00:37:22.390Z,5.20
2023-05-25T00:39:49.206Z,5.03
2023-05-25T00:42:16.405Z,5.87
2023-05-25T00:44:43.473Z,6.17
2023-05-25T00:47:11.876Z,5.73
2023-05-25T00:49:38.779Z,5.57
2023-05-25T00:52:06.256Z,5.73
2023-05-25T00:54:35.249Z,6.17
2023-05-25T00:57:07.314Z,5.20
2023-05-25T00:59:41.769Z,6.57
2023-05-25T01:02:11.038Z,5.57
2023-05-25T01:04:46.951Z,6.10
2023-05-25T01:07:22.599Z,5.53
2023-05-25T01:09:57.012Z,6.00
2023-05-25T01:12:27.084Z,5.70
2023-05-25T01:14:55.969Z,5.63
2023-05-25T01:17:22.936Z,6.23
2023-05-25T01:20:09.057Z,6.23
2023-05-25T01:22:41.102Z,5.80
2023-05-25T01:25:13.767Z,6.77
2023-05-25T01:27:54.089Z,6.93
2023-05-25T01:30:25.162Z,5.87
2023-05-25T01:32:54.127Z,5.30
2023-05-25T01:35:22.426Z,6.00
2023-05-25T01:37:49.933Z,6.30
2023-05-25T01:40:16.884Z,6.03
2023-05-25T01:42:44.091Z,6.57
2023-05-25T01:45:13.536Z,6.80
2023-05-25T01:48:11.574Z,7.10
2023-05-25T01:51:01.822Z,5.50
2023-05-25T01:53:34.022Z,6.30
2023-05-25T01:56:11.589Z,6.43
2023-05-25T01:58:44.468Z,7.03
2023-05-25T02:01:14.464Z,6.43
2023-05-25T02:03:46.869Z,7.30
2023-05-25T02:06:13.850Z,6.50
2023-05-25T02:08:40.636Z,6.30
2023-05-25T02:11:07.874Z,5.67
2023-05-25T02:13:35.228Z,6.53
2023-05-25T02:16:02.506Z,6.03
2023-05-25T02:18:29.376Z,6.47
2023-05-25T02:20:56.191Z,5.70
2023-05-25T02:23:23.012Z,6.67
2023-05-25T02:25:51.747Z,5.70
2023-05-25T02:28:18.885Z,6.03
2023-05-25T02:30:45.872Z,6.10
2023-05-25T02:33:13.898Z,6.80
2023-05-25T02:35:42.018Z,6.60
2023-05-25T02:38:09.392Z,5.77
2023-05-25T02:40:36.656Z,6.80
2023-05-25T02:43:03.835Z,6.30
2023-05-25T02:45:31.018Z,5.77
2023-05-25T02:47:58.192Z,5.53
2023-05-25T02:50:25.515Z,6.30
2023-05-25T02:52:52.743Z,6.73
2023-05-25T02:55:19.966Z,5.67
2023-05-25T02:57:47.574Z,5.83
2023-05-25T03:00:15.077Z,6.60
2023-05-25T03:02:42.336Z,6.63
2023-05-25T03:05:09.740Z,7.33
2023-05-25T03:07:36.942Z,6.80
2023-05-25T03:10:04.556Z,8.23
2023-05-25T03:12:31.730Z,7.13
2023-05-25T03:14:59.001Z,7.07
2023-05-25T03:17:26.377Z,6.90
2023-05-25T03:19:53.739Z,7.73
2023-05-25T03:22:20.950Z,6.77
2023-05-25T03:24:50.152Z,6.60
2023-05-25T03:27:17.381Z,6.93
2023-05-25T03:29:44.548Z,8.23
2023-05-25T03:32:11.796Z,7.33
2023-05-25T03:34:40.364Z,7.10
2023-05-25T03:37:07.550Z,7.20
2023-05-25T03:39:34.737Z,7.20
2023-05-25T03:42:02.873Z,8.17
2023-05-25T03:44:30.072Z,7.97
2023-05-25T03:46:57.271Z,8.43
2023-05-25T03:49:24.457Z,8.80
2023-05-25T03:51:51.645Z,8.10
2023-05-25T03:54:18.887Z,7.93
2023-05-25T03:56:46.072Z,7.83
2023-05-25T03:59:13.399Z,6.87
2023-05-25T04:01:40.630Z,7.50
2023-05-25T04:04:08.029Z,8.27
2023-05-25T04:06:37.320Z,7.43
2023-05-25T04:09:05.070Z,7.10
2023-05-25T04:11:32.488Z,9.03
2023-05-25T04:14:00.017Z,8.53
2023-05-25T04:16:27.561Z,8.00
2023-05-25T04:18:55.771Z,7.63
2023-05-25T04:21:23.310Z,8.03
2023-05-25T04:23:50.518Z,8.87
2023-05-25T04:26:17.858Z,8.40
2023-05-25T04:28:45.974Z,7.83
2023-05-25T04:31:13.532Z,8.20
2023-05-25T04:33:40.820Z,7.90
2023-05-25T04:36:11.137Z,8.03
2023-05-25T04:38:38.449Z,7.90
2023-05-25T04:41:06.525Z,7.63
2023-05-25T04:43:33.846Z,7.50
2023-05-25T04:46:01.450Z,7.50
2023-05-25T04:48:28.710Z,7.20
2023-05-25T04:50:56.215Z,7.37
2023-05-25T04:53:23.955Z,7.40
2023-05-25T04:55:51.647Z,8.17
2023-05-25T04:58:19.097Z,7.90
2023-05-25T05:00:47.267Z,7.93
2023-05-25T05:03:14.608Z,8.27
2023-05-25T05:05:42.102Z,7.43
2023-05-25T05:08:09.474Z,7.67
2023-05-25T05:10:36.706Z,8.20
2023-05-25T05:13:04.038Z,8.43
2023-05-25T05:15:31.277Z,8.40
2023-05-25T05:17:58.499Z,9.57
2023-05-25T05:20:25.981Z,8.47
2023-05-25T05:22:53.525Z,8.77
2023-05-25T05:25:20.725Z,7.50
2023-05-25T05:27:48.006Z,7.43
2023-05-25T05:30:15.265Z,8.50
2023-05-25T05:32:46.973Z,7.97
2023-05-25T05:35:14.359Z,8.27
2023-05-25T05:37:41.651Z,7.33
2023-05-25T05:40:10.769Z,8.63
2023-05-25T05:42:38.018Z,7.90
2023-05-25T05:45:05.434Z,6.77
2023-05-25T05:47:32.715Z,7.73
2023-05-25T05:49:59.952Z,7.77
2023-05-25T05:52:27.154Z,8.20
2023-05-25T05:54:54.420Z,8.83
2023-05-25T05:57:21.988Z,8.40
2023-05-25T05:59:49.246Z,8.63
2023-05-25T06:02:16.456Z,8.77
2023-05-25T06:04:43.758Z,8.77
2023-05-25T06:07:11.535Z,10.00
2023-05-25T06:09:38.750Z,8.33
2023-05-25T06:12:06.912Z,9.10
2023-05-25T06:14:34.111Z,9.70
2023-05-25T06:17:03.350Z,10.23
2023-05-25T06:19:42.079Z,10.23
2023-05-25T06:22:09.296Z,10.97
2023-05-25T06:24:36.652Z,9.60
2023-05-25T06:27:04.958Z,10.63
2023-05-25T06:29:32.201Z,9.50
2023-05-25T06:31:59.465Z,9.70
2023-05-25T06:34:26.844Z,9.47
2023-05-25T06:36:54.237Z,9.30
2023-05-25T06:39:21.432Z,8.90
2023-05-25T06:41:48.673Z,9.03
2023-05-25T06:44:16.020Z,8.67
2023-05-25T06:46:43.259Z,9.77
2023-05-25T06:49:10.799Z,9.17
2023-05-25T06:51:38.074Z,9.27
2023-05-25T06:54:05.440Z,9.03
2023-05-25T06:56:32.711Z,9.27
2023-05-25T06:58:59.925Z,9.97
2023-05-25T07:01:27.194Z,8.40
2023-05-25T07:03:54.422Z,8.07
2023-05-25T07:06:21.719Z,8.50
2023-05-25T07:08:48.934Z,7.90
2023-05-25T07:11:20.588Z,7.10
2023-05-25T07:13:47.927Z,7.30
2023-05-25T07:16:15.476Z,8.03
2023-05-25T07:18:45.232Z,9.77
2023-05-25T07:21:12.548Z,7.63
2023-05-25T07:23:42.748Z,7.63
2023-05-25T07:26:09.988Z,8.13
2023-05-25T07:28:37.234Z,8.03
2023-05-25T07:31:04.497Z,8.00
2023-05-25T07:33:31.749Z,8.13
2023-05-25T07:35:58.978Z,9.23
2023-05-25T07:38:26.534Z,7.93
2023-05-25T07:40:53.757Z,11.33
2023-05-25T07:43:21.105Z,9.27
2023-05-25T07:45:48.317Z,9.10
2023-05-25T07:48:15.649Z,8.48
2023-05-25T07:50:43.048Z,10.57
2023-05-25T07:53:10.479Z,10.80
2023-05-25T07:55:37.714Z,12.25
2023-05-25T07:58:07.425Z,15.93
2023-05-25T08:00:34.692Z,11.77
2023-05-25T08:03:02.789Z,11.98
2023-05-25T08:05:30.174Z,9.82
2023-05-25T08:07:57.381Z,11.43
2023-05-25T08:10:31.255Z,10.05
2023-05-25T08:12:59.003Z,9.07
2023-05-25T08:15:26.585Z,10.73
2023-05-25T08:17:53.941Z,11.38
2023-05-25T08:20:21.314Z,9.50
2023-05-25T08:22:48.611Z,10.80
2023-05-25T08:25:18.571Z,9.88
2023-05-25T08:27:45.933Z,9.50
2023-05-25T08:30:13.259Z,11.38
2023-05-25T08:32:40.783Z,11.95
2023-05-25T08:35:08.170Z,13.02
2023-05-25T08:37:35.719Z,13.48
2023-05-25T08:40:03.111Z,16.00
2023-05-25T08:42:30.466Z,16.13
2023-05-25T08:44:58.877Z,16.83
2023-05-25T08:47:30.323Z,19.92
2023-05-25T08:49:58.434Z,16.33
2023-05-25T08:52:29.005Z,16.13
2023-05-25T08:54:57.885Z,16.98
2023-05-25T08:57:28.253Z,17.75
2023-05-25T08:59:58.243Z,26.80
2023-05-25T09:02:40.585Z,19.30
2023-05-25T09:05:09.052Z,18.73
2023-05-25T09:07:38.711Z,17.05
2023-05-25T09:10:06.241Z,16.23
2023-05-25T09:12:33.473Z,15.80
2023-05-25T09:15:00.896Z,27.67
2023-05-25T09:17:28.081Z,23.38
2023-05-25T09:19:55.438Z,25.98
2023-05-25T09:22:22.912Z,15.45
2023-05-25T09:24:50.156Z,16.13
2023-05-25T09:27:19.259Z,16.73
2023-05-25T09:29:50.180Z,17.48
2023-05-25T09:32:17.933Z,16.65
2023-05-25T09:34:45.602Z,13.75
2023-05-25T09:37:13.937Z,13.68
2023-05-25T09:39:42.513Z,13.85
2023-05-25T09:42:10.287Z,14.27
2023-05-25T09:44:37.647Z,13.65
2023-05-25T09:47:05.563Z,11.70
2023-05-25T09:49:32.952Z,17.80
2023-05-25T09:52:01.396Z,19.90
2023-05-25T09:54:28.684Z,19.25
2023-05-25T09:56:55.925Z,12.93
2023-05-25T09:59:23.926Z,11.98
2023-05-25T10:01:54.408Z,10.05
2023-05-25T10:04:21.750Z,9.20
2023-05-25T10:06:52.081Z,10.07
2023-05-25T10:09:20.455Z,8.57
2023-05-25T10:11:48.365Z,7.90
2023-05-25T10:14:16.300Z,8.63
2023-05-25T10:16:47.185Z,8.95
2023-05-25T10:19:18.380Z,8.23
2023-05-25T10:21:52.529Z,7.88
2023-05-25T10:24:32.528Z,8.00
2023-05-25T10:27:07.682Z,7.55
2023-05-25T10:29:42.789Z,6.47
2023-05-25T10:32:10.081Z,6.82
2023-05-25T10:34:37.418Z,5.95
2023-05-25T10:37:07.444Z,5.78
2023-05-25T10:39:35.212Z,5.20
2023-05-25T10:42:02.939Z,4.55
2023-05-25T10:44:30.997Z,4.97
2023-05-25T10:46:59.556Z,6.63
2023-05-25T10:49:27.573Z,6.22
2023-05-25T10:51:58.849Z,11.77
2023-05-25T10:54:30.913Z,10.65
2023-05-25T10:57:17.174Z,9.75
2023-05-25T10:59:45.648Z,7.72
2023-05-25T11:02:12.996Z,7.68
2023-05-25T11:04:40.440Z,5.75
2023-05-25T11:07:09.102Z,6.35
2023-05-25T11:09:43.176Z,4.90
2023-05-25T11:12:23.194Z,5.22
2023-05-25T11:15:09.261Z,5.93
2023-05-25T11:17:45.127Z,6.05
2023-05-25T11:20:23.816Z,4.93
2023-05-25T11:22:52.564Z,7.20
2023-05-25T11:25:49.112Z,6.80
2023-05-25T11:28:16.582Z,8.70
2023-05-25T11:30:43.939Z,5.50
2023-05-25T11:33:11.338Z,4.75
2023-05-25T11:35:38.967Z,6.75
2023-05-25T11:38:06.897Z,5.50
2023-05-25T11:40:34.525Z,4.45
2023-05-25T11:43:03.927Z,4.13
2023-05-25T11:45:37.362Z,4.97
2023-05-25T11:48:05.809Z,4.47
2023-05-25T11:50:33.363Z,5.53
2023-05-25T11:53:00.760Z,5.95
2023-05-25T11:55:28.029Z,5.90
2023-05-25T11:57:58.803Z,6.05
2023-05-25T12:00:27.348Z,5.82
2023-05-25T12:02:54.943Z,5.13
2023-05-25T12:05:23.436Z,4.70
2023-05-25T12:07:51.417Z,4.72
2023-05-25T12:10:19.037Z,6.40
2023-05-25T12:12:47.224Z,5.22
2023-05-25T12:15:16.696Z,6.90
2023-05-25T12:17:45.862Z,4.68
2023-05-25T12:20:13.813Z,4.68
2023-05-25T12:22:41.197Z,4.35
2023-05-25T12:25:10.241Z,5.35
2023-05-25T12:27:37.557Z,4.63
2023-05-25T12:30:05.835Z,4.82
2023-05-25T12:32:33.073Z,4.90
2023-05-25T12:35:07.520Z,6.45
2023-05-25T12:37:35.077Z,5.78
2023-05-25T12:40:02.385Z,5.75
2023-05-25T12:42:30.756Z,5.60
2023-05-25T12:44:58.371Z,5.55
2023-05-25T12:47:28.732Z,5.35
2023-05-25T12:50:15.198Z,5.10
2023-05-25T12:52:46.683Z,4.68
2023-05-25T12:55:20.762Z,4.53
2023-05-25T12:57:52.355Z,5.93
2023-05-25T13:00:38.342Z,12.52
2023-05-25T13:03:09.354Z,4.50
2023-05-25T13:05:37.501Z,5.80
2023-05-25T13:08:05.417Z,5.40
2023-05-25T13:10:33.371Z,5.70
2023-05-25T13:13:02.128Z,6.07
2023-05-25T13:15:29.703Z,8.52
2023-05-25T13:18:00.367Z,6.05
2023-05-25T13:20:32.621Z,6.68
2023-05-25T13:23:00.226Z,5.22
2023-05-25T13:25:28.128Z,5.47
2023-05-25T13:27:57.672Z,4.60
2023-05-25T13:30:24.979Z,5.07
2023-05-25T13:32:52.850Z,4.95
2023-05-25T13:35:37.620Z,4.95
2023-05-25T13:38:05.373Z,3.50
2023-05-25T13:40:32.648Z,4.00
2023-05-25T13:42:59.926Z,4.22
2023-05-25T13:45:27.634Z,3.90
2023-05-25T13:47:55.096Z,4.07
2023-05-25T13:50:22.383Z,3.15
2023-05-25T13:52:49.654Z,3.33
2023-05-25T13:55:16.964Z,3.83
2023-05-25T13:57:44.327Z,4.07
2023-05-25T14:00:11.758Z,3.80
2023-05-25T14:02:39.000Z,3.80
2023-05-25T14:05:06.487Z,4.18
2023-05-25T14:07:33.965Z,4.13
2023-05-25T14:10:01.259Z,3.72
2023-05-25T14:12:28.547Z,3.42
2023-05-25T14:14:55.785Z,3.15
2023-05-25T14:17:23.085Z,3.40
2023-05-25T14:19:50.490Z,3.72
2023-05-25T14:22:17.766Z,3.33
2023-05-25T14:24:45.047Z,3.38
2023-05-25T14:27:12.278Z,3.53
2023-05-25T14:29:39.493Z,4.25
2023-05-25T14:32:06.852Z,3.70
2023-05-25T14:34:34.080Z,3.95
2023-05-25T14:37:01.345Z,4.35
2023-05-25T14:39:28.608Z,4.20
2023-05-25T14:41:56.203Z,3.50
2023-05-25T14:44:23.450Z,3.50
2023-05-25T14:46:51.052Z,3.85
2023-05-25T14:49:18.577Z,3.70
2023-05-25T14:51:51.015Z,2.92
2023-05-25T14:54:18.237Z,3.10
2023-05-25T14:56:45.475Z,2.80
2023-05-25T14:59:12.656Z,3.92
2023-05-25T15:01:40.475Z,3.45
2023-05-25T15:04:08.776Z,4.30
2023-05-25T15:06:36.848Z,3.97
2023-05-25T15:09:04.193Z,4.05
2023-05-25T15:11:31.524Z,3.67
2023-05-25T15:13:59.034Z,3.45
2023-05-25T15:16:26.299Z,3.40
2023-05-25T15:18:53.612Z,3.53
2023-05-25T15:21:20.852Z,3.75
2023-05-25T15:23:48.219Z,3.00
2023-05-25T15:26:15.472Z,3.00
2023-05-25T15:28:42.673Z,2.90
2023-05-25T15:31:09.994Z,2.90
2023-05-25T15:33:52.046Z,4.15
2023-05-25T15:36:21.334Z,2.92
2023-05-25T15:38:49.358Z,4.68
2023-05-25T15:41:17.772Z,6.13
2023-05-25T15:43:54.533Z,6.57
2023-05-25T15:46:22.104Z,4.22
2023-05-25T15:48:49.448Z,3.40
2023-05-25T15:51:16.837Z,3.20
2023-05-25T15:53:44.094Z,3.47
2023-05-25T15:56:11.478Z,3.95
2023-05-25T15:58:38.888Z,6.38
2023-05-25T16:01:06.459Z,3.72
2023-05-25T16:03:33.901Z,4.07
2023-05-25T16:06:02.232Z,3.42
2023-05-25T16:08:29.496Z,2.90
2023-05-25T16:10:56.729Z,3.22
2023-05-25T16:13:23.952Z,3.25
2023-05-25T16:15:51.184Z,2.67
2023-05-25T16:18:18.408Z,3.80
2023-05-25T16:20:45.891Z,3.30
2023-05-25T16:23:14.840Z,4.70
2023-05-25T16:25:42.173Z,5.00
2023-05-25T16:28:09.385Z,6.97
2023-05-25T16:30:36.638Z,3.30
2023-05-25T16:33:04.095Z,3.78
2023-05-25T16:35:31.405Z,4.03
2023-05-25T16:37:58.597Z,5.03
2023-05-25T16:40:26.170Z,3.15
2023-05-25T16:42:53.433Z,3.38
2023-05-25T16:45:21.040Z,2.72
2023-05-25T16:47:48.337Z,3.25
2023-05-25T16:50:15.731Z,3.78
2023-05-25T16:52:43.088Z,3.55
2023-05-25T16:55:10.382Z,3.78
2023-05-25T16:57:37.577Z,3.65
2023-05-25T17:00:04.967Z,3.92
2023-05-25T17:02:32.291Z,2.75
2023-05-25T17:04:59.576Z,4.03
2023-05-25T17:07:26.796Z,4.43
2023-05-25T17:09:54.089Z,4.35
2023-05-25T17:12:21.591Z,4.43
2023-05-25T17:14:48.827Z,4.60
2023-05-25T17:17:16.523Z,4.15
2023-05-25T17:19:43.712Z,4.18
2023-05-25T17:22:10.887Z,3.65
2023-05-25T17:24:38.118Z,4.28
2023-05-25T17:27:05.409Z,10.23
2023-05-25T17:29:33.088Z,29.23
2023-05-25T17:32:00.430Z,4.70
2023-05-25T17:34:27.692Z,4.38
2023-05-25T17:36:54.937Z,4.07
2023-05-25T17:39:22.184Z,3.55
2023-05-25T17:41:50.171Z,4.40
2023-05-25T17:44:17.555Z,5.22
2023-05-25T17:46:44.836Z,4.82
2023-05-25T17:49:12.067Z,4.45
2023-05-25T17:51:39.261Z,3.83
2023-05-25T17:54:06.717Z,3.67
2023-05-25T17:56:33.920Z,3.42
2023-05-25T17:59:01.112Z,3.83
2023-05-25T18:01:28.450Z,3.28
2023-05-25T18:03:56.315Z,3.42
2023-05-25T18:06:23.523Z,3.50
2023-05-25T18:08:51.692Z,3.65
2023-05-25T18:11:18.972Z,3.95
2023-05-25T18:13:46.150Z,3.80
2023-05-25T18:16:13.398Z,3.92
2023-05-25T18:18:40.657Z,3.72
2023-05-25T18:21:07.971Z,7.47
2023-05-25T18:23:35.223Z,5.07
2023-05-25T18:26:04.256Z,5.13
2023-05-25T18:28:31.598Z,5.32
2023-05-25T18:30:58.980Z,3.92
2023-05-25T18:33:26.225Z,4.07
2023-05-25T18:35:53.545Z,4.75
2023-05-25T18:38:20.763Z,3.80
2023-05-25T18:40:47.999Z,4.45
2023-05-25T18:43:15.326Z,5.15
2023-05-25T18:45:42.717Z,5.30
2023-05-25T18:48:10.456Z,4.70
2023-05-25T18:50:39.360Z,5.35
2023-05-25T18:53:09.812Z,5.50
2023-05-25T18:55:40.102Z,4.45
2023-05-25T18:58:07.514Z,5.90
2023-05-25T19:00:34.968Z,5.90
2023-05-25T19:03:02.324Z,5.38
2023-05-25T19:05:29.633Z,5.85
2023-05-25T19:08:02.023Z,4.60
2023-05-25T19:10:29.289Z,4.47
2023-05-25T19:12:56.695Z,7.10
2023-05-25T19:15:23.879Z,6.90
2023-05-25T19:17:51.137Z,4.50
2023-05-25T19:20:18.408Z,4.03
2023-05-25T19:22:45.666Z,4.38
2023-05-25T19:25:12.911Z,6.63
2023-05-25T19:27:40.165Z,5.55
2023-05-25T19:30:07.736Z,4.93
2023-05-25T19:32:35.149Z,4.50
2023-05-25T19:35:02.417Z,4.22
2023-05-25T19:37:29.631Z,4.45
2023-05-25T19:39:58.230Z,5.13
2023-05-25T19:42:25.446Z,5.70
2023-05-25T19:44:52.699Z,4.93
2023-05-25T19:47:20.016Z,5.15
2023-05-25T19:49:48.219Z,6.90
2023-05-25T19:52:17.991Z,42.15
2023-05-25T19:54:45.431Z,9.45
2023-05-25T19:57:12.708Z,5.28
2023-05-25T19:59:40.028Z,5.55
2023-05-25T20:02:07.363Z,4.95
2023-05-25T20:04:34.591Z,5.00
2023-05-25T20:07:01.840Z,6.47
2023-05-25T20:09:32.084Z,5.97
2023-05-25T20:11:59.721Z,5.50
2023-05-25T20:14:27.197Z,4.68
2023-05-25T20:16:55.921Z,5.45
2023-05-25T20:19:23.459Z,5.40
2023-05-25T20:21:50.862Z,4.60
2023-05-25T20:24:18.257Z,5.13
2023-05-25T20:26:45.484Z,5.78
2023-05-25T20:29:12.746Z,4.75
2023-05-25T20:31:40.549Z,5.05
2023-05-25T20:34:07.856Z,4.82
2023-05-25T20:36:35.073Z,5.50
2023-05-25T20:39:03.269Z,4.93
2023-05-25T20:41:30.846Z,5.20
2023-05-25T20:43:58.102Z,5.47
2023-05-25T20:46:26.037Z,7.43
2023-05-25T20:48:53.585Z,5.80
2023-05-25T20:51:21.919Z,6.38
2023-05-25T20:53:49.176Z,6.00
2023-05-25T20:56:16.705Z,7.07
2023-05-25T20:58:43.991Z,5.25
2023-05-25T21:01:11.491Z,5.82
2023-05-25T21:03:40.364Z,7.30
2023-05-25T21:06:07.705Z,6.00
2023-05-25T21:08:35.109Z,5.15
2023-05-25T21:11:02.531Z,5.25
2023-05-25T21:13:29.819Z,5.40
2023-05-25T21:15:57.040Z,5.22
2023-05-25T21:18:24.317Z,5.63
2023-05-25T21:20:51.561Z,5.32
2023-05-25T21:23:18.826Z,6.35
2023-05-25T21:25:46.755Z,7.20
2023-05-25T21:28:14.247Z,5.30
2023-05-25T21:30:41.490Z,5.72
2023-05-25T21:33:08.737Z,8.68
2023-05-25T21:35:35.929Z,5.60
2023-05-25T21:38:03.152Z,6.70
2023-05-25T21:40:30.342Z,7.18
2023-05-25T21:42:57.602Z,5.50
2023-05-25T21:45:25.255Z,5.53
2023-05-25T21:47:52.663Z,6.10
2023-05-25T21:50:19.940Z,6.70
2023-05-25T21:52:47.265Z,7.22
2023-05-25T21:55:14.455Z,6.70
2023-05-25T21:57:42.864Z,9.07
2023-05-25T22:00:10.857Z,6.83
2023-05-25T22:02:38.202Z,6.30
2023-05-25T22:05:05.871Z,8.20
2023-05-25T22:07:33.096Z,5.78
2023-05-25T22:10:00.484Z,5.10
2023-05-25T22:12:27.742Z,5.60
2023-05-25T22:14:54.934Z,5.17
2023-05-25T22:17:22.184Z,6.50
2023-05-25T22:20:05.964Z,6.15
2023-05-25T22:22:34.929Z,4.97
2023-05-25T22:25:02.204Z,5.33
2023-05-25T22:27:29.425Z,6.73
2023-05-25T22:29:56.650Z,6.13
2023-05-25T22:32:23.870Z,4.93
2023-05-25T22:34:51.051Z,5.13
2023-05-25T22:37:18.344Z,5.80
2023-05-25T22:39:45.635Z,5.47
2023-05-25T22:42:12.822Z,5.50
2023-05-25T22:44:40.022Z,7.33
2023-05-25T22:47:07.629Z,6.50
2023-05-25T22:49:41.232Z,5.47
2023-05-25T22:52:11.296Z,7.47
2023-05-25T22:54:38.596Z,8.50
2023-05-25T22:57:06.369Z,6.53
2023-05-25T22:59:33.621Z,6.87
2023-05-25T23:02:00.997Z,5.40
2023-05-25T23:04:28.238Z,5.90
2023-05-25T23:06:55.547Z,4.80
2023-05-25T23:09:22.852Z,5.63
2023-05-25T23:11:50.212Z,6.77
2023-05-25T23:14:17.411Z,4.77
2023-05-25T23:16:48.528Z,5.20
2023-05-25T23:19:16.710Z,9.80
2023-05-25T23:21:44.561Z,7.10
2023-05-25T23:24:11.805Z,5.50
2023-05-25T23:26:38.980Z,5.23
2023-05-25T23:29:06.231Z,5.23
2023-05-25T23:31:33.494Z,6.23
2023-05-25T23:34:00.708Z,5.20
2023-05-25T23:36:28.343Z,5.57
2023-05-25T23:38:56.028Z,5.17
2023-05-25T23:41:23.324Z,4.83
2023-05-25T23:43:50.734Z,5.93
2023-05-25T23:46:18.157Z,6.00
2023-05-25T23:48:45.796Z,4.40
2023-05-25T23:51:13.273Z,5.40
2023-05-25T23:53:40.559Z,4.37
2023-05-25T23:56:07.904Z,8.00
2023-05-25T23:58:35.726Z,6.00
